createdAt,value
2022-11-29T00:01:41.167Z,59.22
2022-11-29T00:04:08.527Z,59.08
2022-11-29T00:06:36.005Z,54.20
2022-11-29T00:09:11.854Z,56.30
2022-11-29T00:12:04.822Z,60.67
2022-11-29T00:14:33.060Z,58.33
2022-11-29T00:17:04.660Z,62.25
2022-11-29T00:19:33.997Z,56.13
2022-11-29T00:22:01.969Z,61.15
2022-11-29T00:24:31.814Z,61.13
2022-11-29T00:26:59.198Z,55.60
2022-11-29T00:29:27.550Z,55.63
2022-11-29T00:31:54.508Z,57.47
2022-11-29T00:34:22.186Z,56.47
2022-11-29T00:36:51.452Z,61.72
2022-11-29T00:39:20.905Z,62.13
2022-11-29T00:41:48.384Z,63.08
2022-11-29T00:44:19.875Z,64.28
2022-11-29T00:46:47.755Z,65.07
2022-11-29T00:49:15.058Z,65.63
2022-11-29T00:51:42.271Z,68.97
2022-11-29T00:54:10.716Z,67.60
2022-11-29T00:56:37.685Z,69.68
2022-11-29T00:59:04.853Z,62.05
2022-11-29T01:01:32.127Z,68.15
2022-11-29T01:04:01.254Z,72.00
2022-11-29T01:06:29.569Z,66.35
2022-11-29T01:08:56.550Z,68.75
2022-11-29T01:11:26.925Z,68.35
2022-11-29T01:13:57.903Z,74.60
2022-11-29T01:16:25.262Z,71.22
2022-11-29T01:18:53.526Z,63.83
2022-11-29T01:21:23.047Z,73.07
2022-11-29T01:23:53.147Z,75.90
2022-11-29T01:26:31.580Z,77.88
2022-11-29T01:29:01.003Z,53.15
2022-11-29T01:31:37.843Z,73.47
2022-11-29T01:34:06.048Z,63.33
2022-11-29T01:36:33.697Z,73.88
2022-11-29T01:39:03.981Z,79.45
2022-11-29T01:41:34.607Z,67.90
2022-11-29T01:44:13.981Z,77.25
2022-11-29T01:46:43.770Z,68.32
2022-11-29T01:49:19.870Z,74.45
2022-11-29T01:51:51.814Z,67.97
2022-11-29T01:54:20.468Z,71.25
2022-11-29T01:56:50.821Z,73.63
2022-11-29T01:59:22.362Z,71.15
2022-11-29T02:01:49.728Z,77.50
2022-11-29T02:04:19.019Z,68.75
2022-11-29T02:06:46.836Z,56.92
2022-11-29T02:09:20.029Z,72.70
2022-11-29T02:12:21.612Z,73.07
2022-11-29T02:15:08.317Z,64.53
2022-11-29T02:18:02.861Z,72.45
2022-11-29T02:21:24.679Z,77.97
2022-11-29T02:24:26.933Z,74.60
2022-11-29T02:27:17.227Z,79.38
2022-11-29T02:30:03.231Z,72.60
2022-11-29T02:33:00.720Z,76.82
2022-11-29T02:35:54.341Z,77.72
2022-11-29T02:39:08.828Z,69.32
2022-11-29T02:42:26.314Z,81.28
2022-11-29T02:45:25.391Z,74.68
2022-11-29T02:47:56.841Z,72.90
2022-11-29T02:50:36.892Z,74.82
2022-11-29T02:53:23.234Z,75.30
2022-11-29T02:56:11.257Z,67.32
2022-11-29T02:59:01.752Z,68.00
2022-11-29T03:01:52.543Z,64.53
2022-11-29T03:04:34.284Z,70.15
2022-11-29T03:07:25.765Z,71.85
2022-11-29T03:10:17.727Z,63.85
2022-11-29T03:12:53.919Z,64.35
2022-11-29T03:15:43.105Z,75.85
2022-11-29T03:18:56.314Z,70.07
2022-11-29T03:21:23.397Z,74.53
2022-11-29T03:23:59.145Z,60.60
2022-11-29T03:26:51.925Z,83.53
2022-11-29T03:29:28.140Z,79.25
2022-11-29T03:32:06.355Z,72.88
2022-11-29T03:34:56.981Z,74.95
2022-11-29T03:37:47.578Z,79.97
2022-11-29T03:40:21.583Z,82.68
2022-11-29T03:42:57.177Z,74.07
2022-11-29T03:45:44.977Z,79.20
2022-11-29T03:48:17.752Z,75.78
2022-11-29T03:50:56.575Z,73.53
2022-11-29T03:54:03.115Z,64.97
2022-11-29T03:56:40.629Z,76.72
2022-11-29T03:59:42.081Z,77.82
2022-11-29T04:02:41.316Z,78.97
2022-11-29T04:05:31.156Z,86.35
2022-11-29T04:08:36.557Z,79.35
2022-11-29T04:11:36.241Z,75.05
2022-11-29T04:14:24.290Z,75.68
2022-11-29T04:17:23.144Z,70.57
2022-11-29T04:20:02.121Z,75.80
2022-11-29T04:22:47.576Z,73.10
2022-11-29T04:25:14.767Z,76.38
2022-11-29T04:28:06.637Z,75.80
2022-11-29T04:31:02.165Z,73.97
2022-11-29T04:33:51.418Z,76.70
2022-11-29T04:36:43.819Z,68.80
2022-11-29T04:39:14.944Z,68.35
2022-11-29T04:42:09.299Z,71.85
2022-11-29T04:45:00.458Z,64.60
2022-11-29T04:47:59.179Z,74.85
2022-11-29T04:50:44.953Z,72.03
2022-11-29T04:53:27.915Z,79.40
2022-11-29T04:56:40.043Z,50.00
2022-11-29T04:59:16.136Z,78.47
2022-11-29T05:02:20.933Z,78.50
2022-11-29T05:05:13.801Z,79.57
2022-11-29T05:07:52.293Z,76.63
2022-11-29T05:10:44.183Z,78.45
2022-11-29T05:13:34.701Z,71.10
2022-11-29T05:16:17.003Z,76.32
2022-11-29T05:18:44.939Z,71.50
2022-11-29T05:21:37.818Z,78.40
2022-11-29T05:24:24.336Z,71.97
2022-11-29T05:27:06.658Z,80.38
2022-11-29T05:30:07.211Z,69.07
2022-11-29T05:32:51.991Z,74.30
2022-11-29T05:35:53.484Z,72.65
2022-11-29T05:38:20.533Z,71.72
2022-11-29T05:41:00.499Z,78.97
2022-11-29T05:43:46.244Z,73.20
2022-11-29T05:46:34.298Z,73.55
2022-11-29T05:49:10.459Z,78.55
2022-11-29T05:52:25.318Z,73.75
2022-11-29T05:55:17.561Z,72.67
2022-11-29T05:57:56.008Z,58.70
2022-11-29T06:00:28.035Z,74.65
2022-11-29T06:03:09.439Z,77.65
2022-11-29T06:06:00.952Z,75.50
2022-11-29T06:09:22.016Z,75.45
2022-11-29T06:11:56.969Z,68.30
2022-11-29T06:14:45.303Z,73.22
2022-11-29T06:17:37.248Z,76.88
2022-11-29T06:20:25.938Z,72.85
2022-11-29T06:23:28.777Z,75.00
2022-11-29T06:26:03.509Z,76.95
2022-11-29T06:28:49.354Z,75.57
2022-11-29T06:31:28.782Z,75.22
2022-11-29T06:34:06.722Z,69.50
2022-11-29T06:36:46.502Z,69.70
2022-11-29T06:39:21.871Z,70.57
2022-11-29T06:41:50.125Z,71.25
2022-11-29T06:44:17.807Z,71.25
2022-11-29T06:46:52.516Z,70.13
2022-11-29T06:49:27.824Z,70.68
2022-11-29T06:51:55.135Z,70.15
2022-11-29T06:54:25.272Z,69.15
2022-11-29T06:56:58.233Z,65.07
2022-11-29T06:59:50.890Z,72.30
2022-11-29T07:02:25.134Z,68.50
2022-11-29T07:05:14.184Z,74.45
2022-11-29T07:07:42.807Z,70.20
2022-11-29T07:10:22.249Z,77.07
2022-11-29T07:12:55.906Z,83.93
2022-11-29T07:15:42.340Z,82.20
2022-11-29T07:19:01.530Z,78.80
2022-11-29T07:21:37.512Z,95.50
2022-11-29T07:24:42.227Z,101.82
2022-11-29T07:27:25.240Z,104.38
2022-11-29T07:30:19.515Z,92.55
2022-11-29T07:32:57.246Z,77.97
2022-11-29T07:36:00.726Z,81.57
2022-11-29T07:38:49.444Z,77.35
2022-11-29T07:41:24.722Z,79.28
2022-11-29T07:44:21.574Z,73.18
2022-11-29T07:46:48.919Z,71.03
2022-11-29T07:49:18.345Z,68.90
2022-11-29T07:51:45.536Z,60.08
2022-11-29T07:54:18.062Z,67.40
2022-11-29T07:56:45.481Z,74.20
2022-11-29T07:59:13.271Z,69.07
2022-11-29T08:01:40.486Z,71.18
2022-11-29T08:04:09.030Z,67.55
2022-11-29T08:06:36.930Z,72.75
2022-11-29T08:09:04.596Z,70.50
2022-11-29T08:11:32.676Z,66.10
2022-11-29T08:14:01.305Z,70.85
2022-11-29T08:16:28.658Z,73.05
2022-11-29T08:18:55.695Z,69.13
2022-11-29T08:21:24.618Z,65.53
2022-11-29T08:23:52.281Z,70.15
2022-11-29T08:26:20.939Z,62.95
2022-11-29T08:29:00.219Z,67.05
2022-11-29T08:31:27.188Z,67.18
2022-11-29T08:33:55.659Z,61.00
2022-11-29T08:36:23.625Z,67.05
2022-11-29T08:38:54.165Z,54.42
2022-11-29T08:41:26.289Z,64.50
2022-11-29T08:43:53.231Z,58.08
2022-11-29T08:46:20.775Z,60.00
2022-11-29T08:48:48.793Z,57.90
2022-11-29T08:51:16.035Z,67.72
2022-11-29T08:53:43.676Z,62.63
2022-11-29T08:56:53.499Z,59.63
2022-11-29T08:59:01.515Z,61.25
2022-11-29T09:01:29.590Z,59.38
2022-11-29T09:03:59.867Z,60.42
2022-11-29T09:06:41.295Z,55.47
2022-11-29T09:09:08.890Z,54.20
2022-11-29T09:11:36.973Z,53.45
2022-11-29T09:14:06.595Z,52.75
2022-11-29T09:16:37.063Z,56.60
2022-11-29T09:19:08.086Z,53.60
2022-11-29T09:21:37.265Z,57.58
2022-11-29T09:24:06.764Z,52.97
2022-11-29T09:26:36.057Z,51.47
2022-11-29T09:29:05.561Z,48.72
2022-11-29T09:31:33.203Z,55.92
2022-11-29T09:34:00.839Z,57.97
2022-11-29T09:36:29.724Z,58.75
2022-11-29T09:38:57.979Z,50.85
2022-11-29T09:42:02.614Z,50.05
2022-11-29T09:44:41.288Z,51.10
2022-11-29T09:47:23.130Z,57.58
2022-11-29T09:50:03.964Z,52.92
2022-11-29T09:52:44.345Z,51.78
2022-11-29T09:55:26.595Z,50.55
2022-11-29T09:57:55.690Z,50.95
2022-11-29T10:00:22.881Z,53.17
2022-11-29T10:03:17.903Z,51.35
2022-11-29T10:05:50.539Z,47.95
2022-11-29T10:08:42.587Z,51.83
2022-11-29T10:11:20.518Z,40.20
2022-11-29T10:14:00.500Z,52.47
2022-11-29T10:17:06.534Z,41.28
2022-11-29T10:19:38.483Z,47.00
2022-11-29T10:22:49.608Z,50.10
2022-11-29T10:25:26.164Z,50.35
2022-11-29T10:27:54.733Z,48.47
2022-11-29T10:30:22.631Z,45.08
2022-11-29T10:32:56.684Z,41.42
2022-11-29T10:35:24.723Z,41.00
2022-11-29T10:38:22.594Z,45.33
2022-11-29T10:40:47.199Z,43.45
2022-11-29T10:43:14.622Z,45.50
2022-11-29T10:45:50.863Z,45.15
2022-11-29T10:48:21.297Z,46.95
2022-11-29T10:50:50.656Z,47.55
2022-11-29T10:53:32.250Z,48.53
2022-11-29T10:59:05.337Z,47.65
2022-11-29T11:01:38.662Z,49.13
2022-11-29T11:04:35.623Z,49.13
2022-11-29T11:07:06.182Z,44.55
2022-11-29T11:09:47.427Z,43.13
2022-11-29T11:12:14.824Z,39.40
2022-11-29T11:14:42.783Z,36.15
2022-11-29T11:17:21.051Z,34.33
2022-11-29T11:20:04.855Z,37.30
2022-11-29T11:22:34.227Z,38.35
2022-11-29T11:25:24.521Z,38.22
2022-11-29T11:27:52.364Z,37.78
2022-11-29T11:30:24.980Z,33.83
2022-11-29T11:33:25.359Z,34.38
2022-11-29T11:36:21.962Z,31.73
2022-11-29T11:39:10.554Z,36.03
2022-11-29T11:42:05.736Z,36.10
2022-11-29T11:44:47.703Z,35.50
2022-11-29T11:47:27.780Z,32.30
2022-11-29T11:50:03.954Z,28.77
2022-11-29T11:52:50.908Z,37.78
2022-11-29T11:55:19.361Z,31.10
2022-11-29T11:57:57.697Z,37.65
2022-11-29T12:01:04.059Z,31.15
2022-11-29T12:03:53.031Z,34.50
2022-11-29T12:06:44.237Z,33.25
2022-11-29T12:09:11.458Z,30.65
2022-11-29T12:11:51.614Z,31.70
2022-11-29T12:15:03.778Z,31.27
2022-11-29T12:17:41.510Z,30.85
2022-11-29T12:20:22.767Z,23.63
2022-11-29T12:23:13.885Z,22.92
2022-11-29T12:25:47.149Z,24.40
2022-11-29T12:28:20.684Z,21.88
2022-11-29T12:31:02.510Z,14.43
2022-11-29T12:33:30.618Z,19.27
2022-11-29T12:36:13.360Z,19.98
2022-11-29T12:39:03.902Z,21.73
2022-11-29T12:41:51.004Z,23.90
2022-11-29T12:44:39.261Z,20.67
2022-11-29T12:47:37.147Z,18.70
2022-11-29T12:50:22.600Z,18.17
2022-11-29T12:53:27.421Z,20.23
2022-11-29T12:56:19.085Z,18.15
2022-11-29T12:59:04.942Z,18.95
2022-11-29T13:01:37.940Z,20.17
2022-11-29T13:04:23.879Z,19.85
2022-11-29T13:07:22.364Z,19.88
2022-11-29T13:10:28.352Z,19.40
2022-11-29T13:13:13.492Z,15.65
2022-11-29T13:15:52.409Z,20.25
2022-11-29T13:18:50.136Z,20.98
2022-11-29T13:21:23.239Z,21.45
2022-11-29T13:24:09.672Z,20.05
2022-11-29T13:26:40.298Z,22.38
2022-11-29T13:29:13.014Z,22.23
2022-11-29T13:31:40.515Z,39.30
2022-11-29T13:34:24.071Z,22.10
2022-11-29T13:37:08.421Z,25.48
2022-11-29T13:39:59.226Z,23.63
2022-11-29T13:42:38.733Z,24.75
2022-11-29T13:45:27.417Z,25.08
2022-11-29T13:48:00.256Z,21.10
2022-11-29T13:50:39.481Z,22.80
2022-11-29T13:53:23.988Z,37.95
2022-11-29T13:56:02.959Z,33.88
2022-11-29T13:58:39.319Z,24.33
2022-11-29T14:01:13.517Z,22.02
2022-11-29T14:03:45.711Z,23.52
2022-11-29T14:06:14.681Z,23.23
2022-11-29T14:09:21.153Z,23.77
2022-11-29T14:12:27.482Z,23.63
2022-11-29T14:15:04.732Z,24.40
2022-11-29T14:17:51.346Z,21.92
2022-11-29T14:20:28.716Z,22.77
2022-11-29T14:23:31.746Z,22.95
2022-11-29T14:25:59.818Z,24.25
2022-11-29T14:28:41.151Z,25.08
2022-11-29T14:31:09.968Z,25.08
2022-11-29T14:34:00.713Z,20.92
2022-11-29T14:36:38.470Z,25.55
2022-11-29T14:39:19.511Z,24.23
2022-11-29T14:41:56.223Z,24.92
2022-11-29T14:44:29.744Z,23.10
2022-11-29T14:49:47.322Z,29.60
2022-11-29T14:52:14.742Z,26.17
2022-11-29T14:55:05.791Z,27.05
2022-11-29T14:57:48.242Z,24.58
2022-11-29T15:00:20.612Z,27.25
2022-11-29T15:02:59.320Z,28.10
2022-11-29T15:05:46.803Z,26.30
2022-11-29T15:08:19.548Z,29.23
2022-11-29T15:11:02.192Z,29.60
2022-11-29T15:13:36.732Z,28.25
2022-11-29T15:16:33.407Z,30.17
2022-11-29T15:19:29.230Z,27.90
2022-11-29T15:22:14.989Z,26.42
2022-11-29T15:25:02.913Z,28.98
2022-11-29T15:27:39.970Z,29.58
2022-11-29T15:30:21.059Z,29.08
2022-11-29T15:32:50.201Z,31.05
2022-11-29T15:35:20.004Z,32.15
2022-11-29T15:37:50.152Z,27.20
2022-11-29T15:40:20.057Z,29.85
2022-11-29T15:43:14.076Z,29.65
2022-11-29T15:48:26.705Z,30.35
2022-11-29T15:51:00.111Z,30.20
2022-11-29T15:53:39.764Z,31.65
2022-11-29T15:56:17.820Z,30.50
2022-11-29T15:58:48.556Z,29.80
2022-11-29T16:01:21.223Z,33.67
2022-11-29T16:03:53.830Z,33.55
2022-11-29T16:06:28.212Z,34.17
2022-11-29T16:08:55.679Z,33.53
2022-11-29T16:11:28.105Z,33.58
2022-11-29T16:14:13.120Z,33.42
2022-11-29T16:16:43.420Z,39.45
2022-11-29T16:19:39.120Z,40.92
2022-11-29T16:22:15.050Z,40.22
2022-11-29T16:24:54.068Z,44.45
2022-11-29T16:27:23.154Z,44.40
2022-11-29T16:29:55.284Z,45.22
2022-11-29T16:32:32.103Z,48.17
2022-11-29T16:35:15.454Z,53.28
2022-11-29T16:37:44.799Z,57.05
2022-11-29T16:40:24.688Z,60.70
2022-11-29T16:43:04.365Z,55.88
2022-11-29T16:45:37.284Z,61.45
2022-11-29T16:48:22.458Z,66.30
2022-11-29T16:51:08.760Z,60.80
2022-11-29T16:53:42.853Z,67.05
2022-11-29T16:56:16.512Z,66.68
2022-11-29T17:01:34.290Z,72.78
2022-11-29T17:04:01.832Z,80.30
2022-11-29T17:06:30.587Z,77.15
2022-11-29T17:09:00.044Z,84.80
2022-11-29T17:11:28.054Z,81.45
2022-11-29T17:13:55.233Z,86.25
2022-11-29T17:16:24.808Z,105.63
2022-11-29T17:18:55.180Z,108.35
2022-11-29T17:21:28.189Z,142.13
2022-11-29T17:23:55.726Z,212.80
2022-11-29T17:26:24.815Z,200.63
2022-11-29T17:28:52.490Z,233.18
2022-11-29T17:31:23.140Z,225.70
2022-11-29T17:33:57.224Z,167.35
2022-11-29T17:36:24.462Z,139.50
2022-11-29T17:38:51.930Z,147.20
2022-11-29T17:41:23.258Z,118.45
2022-11-29T17:43:52.417Z,90.82
2022-11-29T17:46:23.358Z,82.65
2022-11-29T17:49:10.694Z,67.43
2022-11-29T17:51:54.428Z,76.95
2022-11-29T17:54:23.399Z,82.18
2022-11-29T17:56:52.519Z,97.78
2022-11-29T17:59:20.414Z,80.75
2022-11-29T18:01:49.080Z,78.85
2022-11-29T18:04:16.266Z,81.40
2022-11-29T18:06:46.144Z,77.60
2022-11-29T18:09:13.715Z,77.97
2022-11-29T18:11:48.660Z,77.25
2022-11-29T18:14:24.082Z,79.82
2022-11-29T18:16:53.603Z,87.18
2022-11-29T18:19:22.664Z,89.45
2022-11-29T18:21:51.674Z,92.63
2022-11-29T18:24:22.804Z,89.65
2022-11-29T18:26:51.220Z,94.28
2022-11-29T18:29:18.722Z,98.15
2022-11-29T18:31:46.717Z,104.45
2022-11-29T18:34:16.917Z,106.45
2022-11-29T18:36:48.845Z,109.43
2022-11-29T18:39:19.096Z,111.18
2022-11-29T18:41:50.961Z,111.47
2022-11-29T18:44:20.783Z,116.05
2022-11-29T18:46:48.721Z,116.68
2022-11-29T18:49:18.754Z,123.93
2022-11-29T18:51:47.529Z,126.47
2022-11-29T18:54:17.144Z,133.82
2022-11-29T18:56:46.280Z,142.15
2022-11-29T18:59:19.896Z,134.40
2022-11-29T19:01:50.741Z,135.50
2022-11-29T19:04:20.822Z,138.07
2022-11-29T19:06:48.719Z,137.93
2022-11-29T19:09:24.056Z,142.98
2022-11-29T19:12:04.445Z,128.55
2022-11-29T19:14:33.055Z,125.20
2022-11-29T19:17:00.996Z,122.90
2022-11-29T19:19:28.988Z,125.20
2022-11-29T19:21:56.882Z,118.18
2022-11-29T19:24:25.955Z,123.85
2022-11-29T19:26:56.507Z,119.65
2022-11-29T19:29:24.006Z,118.63
2022-11-29T19:31:51.507Z,114.25
2022-11-29T19:34:19.340Z,116.45
2022-11-29T19:36:47.419Z,117.28
2022-11-29T19:39:17.600Z,117.25
2022-11-29T19:41:49.223Z,119.55
2022-11-29T19:44:16.900Z,106.75
2022-11-29T19:46:49.337Z,117.28
2022-11-29T19:49:16.924Z,116.72
2022-11-29T19:51:45.238Z,121.32
2022-11-29T19:54:12.845Z,115.10
2022-11-29T19:56:40.427Z,118.53
2022-11-29T19:59:10.046Z,117.10
2022-11-29T20:01:42.647Z,131.50
2022-11-29T20:04:17.463Z,118.38
2022-11-29T20:06:46.795Z,118.55
2022-11-29T20:09:15.160Z,121.05
2022-11-29T20:11:43.140Z,117.43
2022-11-29T20:14:12.624Z,121.22
2022-11-29T20:16:41.063Z,127.28
2022-11-29T20:19:18.436Z,120.82
2022-11-29T20:21:49.649Z,123.18
2022-11-29T20:24:18.459Z,128.15
2022-11-29T20:26:48.277Z,131.82
2022-11-29T20:29:23.660Z,117.60
2022-11-29T20:31:54.205Z,130.75
2022-11-29T20:34:21.855Z,127.55
2022-11-29T20:37:19.262Z,130.70
2022-11-29T20:39:50.151Z,128.05
2022-11-29T20:42:38.372Z,132.45
2022-11-29T20:45:09.043Z,131.55
2022-11-29T20:47:52.766Z,125.55
2022-11-29T20:50:26.770Z,129.75
2022-11-29T20:53:13.877Z,124.45
2022-11-29T20:55:47.729Z,139.63
2022-11-29T20:58:18.959Z,137.43
2022-11-29T21:00:47.281Z,138.60
2022-11-29T21:03:16.174Z,142.45
2022-11-29T21:05:44.574Z,137.48
2022-11-29T21:08:13.865Z,139.63
2022-11-29T21:10:43.637Z,144.65
2022-11-29T21:13:13.205Z,142.52
2022-11-29T21:15:42.283Z,147.10
2022-11-29T21:18:26.784Z,148.43
2022-11-29T21:21:17.056Z,145.43
2022-11-29T21:24:06.958Z,144.27
2022-11-29T21:26:45.010Z,146.90
2022-11-29T21:29:20.524Z,147.15
2022-11-29T21:31:51.255Z,147.25
2022-11-29T21:34:19.704Z,151.10
2022-11-29T21:36:56.511Z,155.10
2022-11-29T21:39:34.407Z,155.40
2022-11-29T21:42:03.173Z,151.25
2022-11-29T21:44:31.516Z,146.77
2022-11-29T21:46:58.513Z,147.57
2022-11-29T21:49:26.036Z,143.85
2022-11-29T21:51:53.347Z,150.65
2022-11-29T21:54:20.400Z,147.20
2022-11-29T21:56:47.815Z,150.85
2022-11-29T21:59:14.891Z,142.02
2022-11-29T22:01:44.384Z,155.65
2022-11-29T22:04:11.890Z,144.20
2022-11-29T22:06:39.409Z,145.57
2022-11-29T22:09:07.961Z,149.93
2022-11-29T22:11:35.633Z,146.50
2022-11-29T22:14:14.558Z,151.50
2022-11-29T22:16:48.234Z,152.98
2022-11-29T22:19:18.739Z,162.50
2022-11-29T22:21:50.275Z,159.80
2022-11-29T22:24:19.666Z,171.90
2022-11-29T22:26:48.285Z,173.02
2022-11-29T22:29:15.945Z,170.75
2022-11-29T22:31:44.519Z,170.30
2022-11-29T22:34:11.978Z,181.05
2022-11-29T22:36:40.244Z,176.85
2022-11-29T22:39:09.308Z,179.90
2022-11-29T22:41:38.334Z,186.77
2022-11-29T22:44:06.322Z,197.63
2022-11-29T22:46:35.953Z,191.10
2022-11-29T22:49:04.353Z,196.85
2022-11-29T22:51:34.279Z,194.45
2022-11-29T22:54:04.404Z,201.73
2022-11-29T22:56:34.602Z,195.75
2022-11-29T22:59:02.070Z,347.95
2022-11-29T23:01:30.867Z,214.38
2022-11-29T23:04:01.418Z,208.70
2022-11-29T23:06:40.936Z,216.57
2022-11-29T23:09:16.690Z,200.13
2022-11-29T23:11:45.735Z,213.68
2022-11-29T23:14:12.869Z,224.75
2022-11-29T23:16:41.827Z,226.57
2022-11-29T23:19:09.272Z,183.90
2022-11-29T23:21:39.329Z,219.95
2022-11-29T23:24:07.025Z,222.32
2022-11-29T23:26:40.380Z,248.75
2022-11-29T23:29:13.755Z,235.95
2022-11-29T23:31:42.485Z,236.70
2022-11-29T23:34:16.281Z,245.25
2022-11-29T23:36:49.787Z,251.48
2022-11-29T23:39:20.224Z,257.60
2022-11-29T23:41:49.551Z,253.57
2022-11-29T23:44:16.491Z,248.60
2022-11-29T23:46:43.869Z,259.92
2022-11-29T23:49:13.895Z,247.52
2022-11-29T23:51:42.952Z,249.65
2022-11-29T23:54:11.356Z,242.95
2022-11-29T23:56:38.360Z,241.27
2022-11-29T23:59:06.916Z,224.80
